Time;durP1;ratioP1;P1;durP2;ratioP2;P2;SDS_P1;SDS_P2;PMS_P1;PMS_P2;Temp;Humidity;BMP_temperature;BMP_pressure;BME280_temperature;BME280_humidity;BME280_pressure;Samples;Min_cycle;Max_cycle;Signal;HPM_P1;HPM_P2
2023/02/17 00:01:32;;;;;;;;;;;11.40;92.60;;;10.36;79.75;100981.72;5009192;28;19933;-76
2023/02/17 00:04:00;;;;;;;;;;;11.40;92.80;;;10.37;79.62;100986.03;5008843;28;19930;-76
2023/02/17 00:06:29;;;;;;;;;;;11.60;92.70;;;10.38;79.57;100986.84;5006914;28;20405;-77
2023/02/17 00:08:56;;;;;;;;;;;11.50;92.90;;;10.40;79.80;100988.31;5004979;28;19940;-76
2023/02/17 00:11:23;;;;;;;;;;;11.40;92.90;;;10.41;79.34;100983.81;5003407;28;19926;-76
2023/02/17 00:13:52;;;;;;;;;;;11.50;92.60;;;10.40;79.51;100980.31;5009198;28;19979;-77
2023/02/17 00:16:21;;;;;;;;;;;11.50;92.60;;;10.42;79.44;100970.28;5007270;28;19995;-76
2023/02/17 00:18:53;;;;;;;;;;;11.50;92.80;;;10.41;79.54;100968.63;5003407;28;19936;-76
2023/02/17 00:21:22;;;;;;;;;;;11.50;92.80;;;10.40;80.01;100966.16;5010652;28;20016;-77
2023/02/17 00:23:50;;;;;;;;;;;11.50;93.10;;;10.42;79.82;100964.13;5011230;28;19925;-76
2023/02/17 00:26:17;;;;;;;;;;;11.50;93.10;;;10.39;79.87;100961.84;5008519;28;19935;-76
2023/02/17 00:28:45;;;;;;;;;;;11.50;93.00;;;10.40;80.08;100968.84;4995600;28;19975;-77
2023/02/17 00:31:14;;;;;;;;;;;11.50;93.20;;;10.39;80.14;100969.84;5011542;28;20747;-76
2023/02/17 00:33:42;;;;;;;;;;;11.50;93.20;;;10.39;80.28;100959.97;4998286;28;19930;-76
2023/02/17 00:36:11;;;;;;;;;;;11.40;93.20;;;10.38;80.34;100961.00;4979791;28;19925;-76
2023/02/17 00:38:39;;;;;;;;;;;11.50;93.30;;;10.38;80.07;100954.84;5009159;28;19925;-76
2023/02/17 00:41:06;;;;;;;;;;;11.50;93.20;;;10.38;80.29;100954.84;5008699;28;19987;-76
2023/02/17 00:43:33;;;;;;;;;;;11.50;93.20;;;10.38;80.27;100957.53;5010475;28;19936;-76
2023/02/17 00:46:02;;;;;;;;;;;11.40;93.30;;;10.39;80.15;100940.50;4991507;28;19932;-76
2023/02/17 00:48:29;;;;;;;;;;;11.50;93.20;;;10.39;80.02;100943.16;5008087;28;19932;-76
2023/02/17 00:50:56;;;;;;;;;;;11.50;93.20;;;10.40;80.04;100955.50;5011232;28;20214;-76
2023/02/17 00:53:25;;;;;;;;;;;11.50;93.10;;;10.42;79.95;100956.13;5011109;28;19936;-76
2023/02/17 00:55:52;;;;;;;;;;;11.50;93.10;;;10.40;79.92;100948.31;5011202;28;19930;-76
2023/02/17 00:58:19;;;;;;;;;;;11.50;93.00;;;10.39;80.17;100937.84;5011540;28;19926;-76
2023/02/17 01:00:45;;;;;;;;;;;11.50;93.20;;;10.39;80.75;100941.31;4994699;28;19936;-76
2023/02/17 01:03:12;;;;;;;;;;;11.50;93.40;;;10.42;80.84;100940.13;4994043;28;20382;-76
2023/02/17 01:05:41;;;;;;;;;;;11.50;93.60;;;10.39;80.83;100941.31;4988273;28;19948;-76
2023/02/17 01:08:08;;;;;;;;;;;11.50;93.70;;;10.38;81.01;100945.00;4990853;28;19937;-76
2023/02/17 01:10:38;;;;;;;;;;;11.50;93.80;;;10.39;81.28;100933.31;4994030;28;19960;-76
2023/02/17 01:13:05;;;;;;;;;;;11.50;93.90;;;10.43;81.20;100941.75;4990649;28;19929;-76
2023/02/17 01:15:36;;;;;;;;;;;11.50;93.90;;;10.43;81.05;100936.44;4993934;28;20037;-76
2023/02/17 01:18:03;;;;;;;;;;;11.50;93.70;;;10.42;81.62;100932.94;5011549;28;19929;-76
2023/02/17 01:20:30;;;;;;;;;;;11.50;94.20;;;10.45;81.37;100931.72;4993495;28;19939;-76
2023/02/17 01:22:58;;;;;;;;;;;11.50;94.00;;;10.41;81.80;100927.81;4989861;28;19940;-76
2023/02/17 01:25:25;;;;;;;;;;;11.50;94.20;;;10.39;81.79;100930.66;4992971;28;19929;-76
2023/02/17 01:27:54;;;;;;;;;;;11.50;94.30;;;10.41;82.16;100922.47;4990905;28;19934;-76
2023/02/17 01:30:21;;;;;;;;;;;11.50;94.50;;;10.40;81.61;100916.31;4992811;28;19952;-76
2023/02/17 01:32:48;;;;;;;;;;;11.50;93.90;;;10.40;81.62;100916.31;5001863;28;19929;-76
2023/02/17 01:35:15;;;;;;;;;;;11.50;94.20;;;10.43;81.53;100912.44;5011180;28;19929;-76
2023/02/17 01:37:42;;;;;;;;;;;11.50;94.10;;;10.44;81.60;100914.06;5010442;28;19999;-76
2023/02/17 01:40:10;;;;;;;;;;;11.50;94.10;;;10.44;81.91;100906.06;5011442;28;20386;-76
2023/02/17 01:42:36;;;;;;;;;;;11.50;94.50;;;10.45;81.71;100905.88;5008908;28;20313;-76
2023/02/17 01:45:34;;;;;;;;;;;11.50;94.20;;;10.44;81.87;100903.41;5011341;28;19940;-76
2023/02/17 01:48:05;;;;;;;;;;;11.50;94.30;;;10.48;81.98;100904.66;4993616;28;19941;-76
2023/02/17 01:50:35;;;;;;;;;;;11.50;94.60;;;10.46;82.22;100898.72;5010997;28;19951;-76
2023/02/17 01:53:05;;;;;;;;;;;11.60;94.60;;;10.45;82.48;100889.06;5008701;28;19931;-76
2023/02/17 01:55:32;;;;;;;;;;;11.50;94.70;;;10.44;82.57;100882.06;5010515;28;19925;-76
2023/02/17 01:58:01;;;;;;;;;;;11.50;94.90;;;10.41;82.81;100887.81;4991635;28;19925;-76
2023/02/17 02:00:29;;;;;;;;;;;11.50;95.00;;;10.42;82.98;100892.13;4993238;28;20381;-76
2023/02/17 02:02:57;;;;;;;;;;;11.50;95.20;;;10.41;82.75;100880.63;4986900;28;19926;-76
2023/02/17 02:05:24;;;;;;;;;;;11.50;94.80;;;10.44;82.44;100879.41;5007184;28;19932;-76
2023/02/17 02:07:52;;;;;;;;;;;11.60;94.70;;;10.46;82.82;100874.72;5012009;28;19929;-76
2023/02/17 02:10:19;;;;;;;;;;;11.50;95.10;;;10.45;82.68;100873.06;5010322;28;19929;-76
2023/02/17 02:12:47;;;;;;;;;;;11.60;94.80;;;10.44;82.59;100872.25;4980497;28;19930;-76
2023/02/17 02:15:15;;;;;;;;;;;11.70;94.90;;;10.43;82.85;100862.59;4989848;28;19930;-76
2023/02/17 02:17:54;;;;;;;;;;;11.60;95.00;;;10.43;83.29;100867.91;5005863;28;19925;-76
2023/02/17 02:20:56;;;;;;;;;;;11.50;95.20;;;10.43;83.36;100859.09;4990998;28;19936;-76
2023/02/17 02:23:53;;;;;;;;;;;11.50;95.40;;;10.42;83.27;100860.13;5004038;28;20016;-76
2023/02/17 02:26:54;;;;;;;;;;;11.50;95.20;;;10.40;83.53;100856.84;4995755;28;19941;-76
2023/02/17 02:29:34;;;;;;;;;;;11.50;95.20;;;10.40;83.46;100864.84;4991577;28;19936;-76
2023/02/17 02:32:09;;;;;;;;;;;11.50;95.20;;;10.44;83.30;100866.06;4991200;28;20028;-76
2023/02/17 02:34:42;;;;;;;;;;;11.50;95.20;;;10.45;83.19;100871.22;5005402;28;19930;-76
2023/02/17 02:37:13;;;;;;;;;;;11.50;95.20;;;10.45;82.88;100867.72;5010541;28;19929;-76
2023/02/17 02:39:44;;;;;;;;;;;11.50;95.00;;;10.47;82.55;100865.69;4982510;28;20421;-76
2023/02/17 02:42:14;;;;;;;;;;;11.60;94.70;;;10.43;82.74;100859.91;4985777;28;19926;-76
2023/02/17 02:44:42;;;;;;;;;;;11.60;94.80;;;10.45;82.74;100857.06;5009970;28;19929;-76
2023/02/17 02:47:42;;;;;;;;;;;11.60;94.70;;;10.50;82.43;100849.28;4991150;28;19952;-76
2023/02/17 02:50:13;;;;;;;;;;;11.60;94.70;;;10.49;82.02;100840.47;4989439;28;19933;-76
2023/02/17 02:52:48;;;;;;;;;;;11.60;94.40;;;10.50;81.99;100842.09;4990575;28;19925;-76
2023/02/17 02:55:19;;;;;;;;;;;11.60;94.30;;;10.52;82.10;100832.03;4991921;28;19936;-76
2023/02/17 02:57:52;;;;;;;;;;;11.80;94.40;;;10.53;81.70;100830.19;4991207;28;19925;-76
2023/02/17 03:00:25;;;;;;;;;;;11.60;94.10;;;10.52;81.93;100826.72;4992501;28;19932;-76
2023/02/17 03:02:57;;;;;;;;;;;11.60;94.40;;;10.50;81.51;100825.28;4984708;28;20390;-76
2023/02/17 03:05:31;;;;;;;;;;;11.60;94.20;;;10.50;81.61;100822.63;5009026;28;19952;-76
2023/02/17 03:08:01;;;;;;;;;;;11.60;94.40;;;10.49;81.80;100818.28;5007585;28;20396;-76
2023/02/17 03:10:29;;;;;;;;;;;11.60;94.30;;;10.50;81.73;100825.28;4992487;28;19934;-76
2023/02/17 03:12:58;;;;;;;;;;;11.60;94.10;;;10.48;81.70;100821.97;4989285;28;21269;-76
2023/02/17 03:15:29;;;;;;;;;;;11.60;94.10;;;10.51;81.66;100824.25;5007650;28;19930;-76
2023/02/17 03:17:56;;;;;;;;;;;11.60;94.20;;;10.52;81.27;100824.03;5009647;28;19926;-76
2023/02/17 03:20:24;;;;;;;;;;;11.60;94.00;;;10.52;81.41;100824.03;5010379;28;19952;-76
2023/02/17 03:22:52;;;;;;;;;;;11.60;94.10;;;10.51;81.18;100821.59;5001854;28;20413;-76
2023/02/17 03:25:19;;;;;;;;;;;11.60;94.00;;;10.49;81.43;100819.13;4989438;28;19930;-76
2023/02/17 03:27:46;;;;;;;;;;;11.60;94.00;;;10.52;81.36;100825.91;4988435;28;19996;-76
2023/02/17 03:30:14;;;;;;;;;;;11.60;93.90;;;10.54;81.22;100826.50;5002056;28;19933;-76
2023/02/17 03:32:42;;;;;;;;;;;11.60;93.80;;;10.53;81.04;100806.19;5008959;28;19925;-76
2023/02/17 03:35:09;;;;;;;;;;;11.60;93.80;;;10.54;80.85;100810.50;5000772;28;20271;-76
2023/02/17 03:37:36;;;;;;;;;;;11.60;93.70;;;10.52;80.98;100812.56;5009334;28;19926;-76
2023/02/17 03:40:06;;;;;;;;;;;11.60;93.80;;;10.49;81.18;100821.81;5007828;28;19926;-76
2023/02/17 03:42:33;;;;;;;;;;;11.60;93.70;;;10.53;81.17;100811.53;5002998;28;20378;-76
2023/02/17 03:45:00;;;;;;;;;;;11.80;93.80;;;10.53;81.01;100820.34;5003469;28;20404;-76
2023/02/17 03:47:27;;;;;;;;;;;11.60;93.40;;;10.56;80.88;100811.13;5008933;28;19926;-76
2023/02/17 03:49:53;;;;;;;;;;;11.70;93.60;;;10.61;80.70;100816.69;5009283;28;19929;-76
2023/02/17 03:52:20;;;;;;;;;;;11.80;93.60;;;10.57;80.75;100826.94;5008096;28;20413;-76
2023/02/17 03:54:47;;;;;;;;;;;11.70;93.50;;;10.56;80.61;100833.28;5007139;28;19937;-76
2023/02/17 03:57:16;;;;;;;;;;;11.70;93.50;;;10.52;80.80;100842.72;5008264;28;19933;-76
2023/02/17 03:59:43;;;;;;;;;;;11.70;93.40;;;10.53;80.80;100840.88;5011078;28;19936;-76
2023/02/17 04:02:09;;;;;;;;;;;11.70;93.40;;;10.56;80.67;100832.47;5008142;28;20301;-76
2023/02/17 04:04:37;;;;;;;;;;;11.70;93.40;;;10.60;80.48;100832.91;5009385;28;19925;-76
2023/02/17 04:07:04;;;;;;;;;;;11.70;93.20;;;10.62;80.26;100826.31;5008204;28;19929;-76
2023/02/17 04:09:31;;;;;;;;;;;11.70;93.20;;;10.64;80.01;100829.63;4991721;28;19925;-76
2023/02/17 04:11:58;;;;;;;;;;;11.80;93.00;;;10.66;79.86;100830.22;4998113;28;19926;-76
2023/02/17 04:14:27;;;;;;;;;;;11.80;93.00;;;10.64;80.21;100828.78;5008257;28;20413;-76
2023/02/17 04:16:53;;;;;;;;;;;11.80;93.00;;;10.68;80.00;100832.69;4994746;28;20020;-76
2023/02/17 04:19:20;;;;;;;;;;;11.80;92.90;;;10.68;79.84;100846.84;5012771;28;20390;-76
2023/02/17 04:21:47;;;;;;;;;;;11.80;92.80;;;10.70;79.66;100841.31;4994209;28;19936;-76
2023/02/17 04:24:17;;;;;;;;;;;11.80;92.80;;;10.70;79.80;100842.16;5010336;28;19930;-76
2023/02/17 04:26:44;;;;;;;;;;;11.80;92.70;;;10.69;79.16;100848.50;5006069;28;20032;-76
2023/02/17 04:29:10;;;;;;;;;;;11.80;92.50;;;10.67;79.39;100847.06;5013315;28;19930;-76
2023/02/17 04:31:39;;;;;;;;;;;11.80;92.60;;;10.68;79.73;100846.03;5012011;28;19929;-76
2023/02/17 04:34:06;;;;;;;;;;;11.80;92.60;;;10.68;79.27;100841.50;5011631;28;19937;-76
2023/02/17 04:36:33;;;;;;;;;;;11.80;92.50;;;10.69;79.28;100824.50;5011316;28;19929;-76
2023/02/17 04:39:00;;;;;;;;;;;11.80;92.60;;;10.70;79.11;100812.81;5012241;28;19930;-75
2023/02/17 04:41:27;;;;;;;;;;;11.80;92.40;;;10.70;78.95;100811.97;5011785;28;19932;-77
2023/02/17 04:43:53;;;;;;;;;;;11.80;92.20;;;10.72;78.90;100810.75;5012052;28;19937;-77
2023/02/17 04:46:20;;;;;;;;;;;11.80;92.20;;;10.72;79.01;100801.91;5011746;28;19929;-77
2023/02/17 04:48:49;;;;;;;;;;;11.80;92.20;;;10.73;78.88;100807.03;5012921;28;19926;-77
2023/02/17 04:51:16;;;;;;;;;;;11.80;92.20;;;10.74;78.51;100811.38;5012242;28;19935;-76
2023/02/17 04:53:43;;;;;;;;;;;11.80;92.00;;;10.73;78.58;100815.03;5005550;28;19925;-76
2023/02/17 04:56:09;;;;;;;;;;;11.80;91.90;;;10.72;78.73;100816.06;5011179;28;19933;-77
2023/02/17 04:58:36;;;;;;;;;;;11.80;92.00;;;10.73;78.68;100806.22;5011933;28;19932;-76
2023/02/17 05:01:03;;;;;;;;;;;11.90;92.20;;;10.76;78.57;100801.31;5012782;28;19940;-76
2023/02/17 05:03:30;;;;;;;;;;;11.90;92.00;;;10.76;78.48;100801.31;5010989;28;20707;-76
2023/02/17 05:05:59;;;;;;;;;;;11.90;91.90;;;10.75;78.40;100805.00;5007210;28;20008;-78
2023/02/17 05:08:26;;;;;;;;;;;11.80;91.70;;;10.72;78.68;100799.25;5011109;28;19929;-78
2023/02/17 05:10:53;;;;;;;;;;;11.90;92.00;;;10.74;78.43;100815.91;5010305;28;20305;-77
2023/02/17 05:13:20;;;;;;;;;;;11.80;91.80;;;10.70;78.62;100810.13;5011188;28;19926;-77
2023/02/17 05:15:47;;;;;;;;;;;11.80;91.90;;;10.72;78.32;100824.06;5010191;28;19932;-77
2023/02/17 05:18:14;;;;;;;;;;;11.80;91.70;;;10.70;78.47;100828.81;5012499;28;19929;-77
2023/02/17 05:20:41;;;;;;;;;;;11.80;91.80;;;10.65;78.62;100838.44;4993016;28;20469;-77
2023/02/17 05:23:09;;;;;;;;;;;11.80;91.80;;;10.66;78.57;100816.91;5003474;28;20357;-77
2023/02/17 05:25:36;;;;;;;;;;;11.70;91.90;;;10.67;78.49;100818.53;5007739;28;19939;-77
2023/02/17 05:28:03;;;;;;;;;;;11.80;91.80;;;10.66;78.83;100794.75;5000070;28;19943;-77
2023/02/17 05:30:30;;;;;;;;;;;11.80;92.00;;;10.66;78.84;100795.56;4992643;28;19936;-77
2023/02/17 05:32:57;;;;;;;;;;;11.80;92.00;;;10.69;78.71;100803.16;5002236;28;19933;-77
2023/02/17 05:35:24;;;;;;;;;;;11.80;92.20;;;10.71;78.95;100809.09;4998520;28;19930;-77
2023/02/17 05:37:51;;;;;;;;;;;11.80;92.20;;;10.70;79.24;100807.47;5010380;28;19937;-77
2023/02/17 05:40:20;;;;;;;;;;;11.80;92.30;;;10.71;79.15;100811.78;4993255;28;20594;-77
2023/02/17 05:42:47;;;;;;;;;;;11.80;92.30;;;10.73;79.19;100804.38;5007305;28;20310;-77
2023/02/17 05:45:14;;;;;;;;;;;11.80;92.30;;;10.74;79.11;100807.88;5009243;28;19983;-77
2023/02/17 05:47:41;;;;;;;;;;;11.80;92.40;;;10.70;79.11;100802.13;4999908;28;20432;-77
2023/02/17 05:50:08;;;;;;;;;;;11.80;92.40;;;10.70;79.33;100791.47;5008263;28;19933;-77
2023/02/17 05:52:35;;;;;;;;;;;11.80;92.50;;;10.70;79.32;100790.66;4981466;28;19932;-77
2023/02/17 05:55:03;;;;;;;;;;;11.80;92.40;;;10.67;79.22;100797.19;5009776;28;20449;-77
2023/02/17 05:57:31;;;;;;;;;;;11.80;92.40;;;10.68;79.16;100788.16;5004661;28;19934;-77
2023/02/17 05:59:58;;;;;;;;;;;11.80;92.40;;;10.71;79.14;100795.75;4997536;28;19932;-77
2023/02/17 06:02:25;;;;;;;;;;;11.80;92.30;;;10.70;78.97;100785.31;5000069;28;19932;-77
2023/02/17 06:04:52;;;;;;;;;;;11.80;92.20;;;10.67;79.13;100791.84;5005274;28;19932;-77
2023/02/17 06:07:19;;;;;;;;;;;11.80;92.30;;;10.70;79.00;100788.78;5010025;28;20440;-78
2023/02/17 06:09:46;;;;;;;;;;;11.80;92.20;;;10.75;78.88;100793.53;5010642;28;19930;-77
2023/02/17 06:12:13;;;;;;;;;;;11.80;92.10;;;10.74;78.76;100787.38;5007981;28;20202;-77
2023/02/17 06:14:41;;;;;;;;;;;11.90;92.30;;;10.74;78.85;100786.56;5006815;28;19933;-77
2023/02/17 06:17:08;;;;;;;;;;;11.90;92.30;;;10.70;79.13;100780.78;5004565;28;19926;-77
2023/02/17 06:19:35;;;;;;;;;;;11.80;92.30;;;10.71;79.29;100771.75;5011569;28;19925;-77
2023/02/17 06:22:02;;;;;;;;;;;11.80;92.30;;;10.74;79.09;100779.38;5010053;28;19936;-77
2023/02/17 06:24:29;;;;;;;;;;;11.80;92.30;;;10.75;79.12;100775.66;5002553;28;19929;-76
2023/02/17 06:26:56;;;;;;;;;;;11.80;92.40;;;10.74;79.16;100778.53;5006360;28;19936;-76
2023/02/17 06:29:23;;;;;;;;;;;11.80;92.40;;;10.77;79.24;100797.59;5008181;28;19926;-77
2023/02/17 06:31:51;;;;;;;;;;;11.80;92.40;;;10.77;78.86;100797.59;4995506;28;20361;-77
2023/02/17 06:34:18;;;;;;;;;;;11.90;92.60;;;10.76;79.31;100795.16;4997191;28;19948;-76
2023/02/17 06:36:45;;;;;;;;;;;11.80;92.60;;;10.74;79.52;100792.69;5003138;28;19937;-77
2023/02/17 06:39:12;;;;;;;;;;;11.90;92.70;;;10.74;79.27;100787.38;4997422;28;19930;-77
2023/02/17 06:41:39;;;;;;;;;;;11.80;92.50;;;10.75;79.47;100794.34;4992997;28;19932;-76
2023/02/17 06:44:06;;;;;;;;;;;11.80;92.60;;;10.77;79.49;100792.28;5008389;28;19934;-76
2023/02/17 06:46:33;;;;;;;;;;;11.90;92.70;;;10.75;79.58;100797.00;5008441;28;20393;-77
2023/02/17 06:49:01;;;;;;;;;;;11.90;92.70;;;10.70;79.96;100796.78;5006119;28;19930;-76
2023/02/17 06:51:28;;;;;;;;;;;11.80;92.80;;;10.73;80.17;100796.38;5010760;28;20305;-77
2023/02/17 06:53:55;;;;;;;;;;;12.00;93.20;;;10.74;80.08;100797.22;5002041;28;19929;-76
2023/02/17 06:56:22;;;;;;;;;;;11.90;93.20;;;10.78;80.55;100798.44;5009596;28;19930;-77
2023/02/17 06:58:51;;;;;;;;;;;11.80;93.40;;;10.74;81.27;100790.03;4993544;28;19932;-77
2023/02/17 07:01:20;;;;;;;;;;;11.80;94.00;;;10.76;81.75;100793.31;4991198;28;20012;-77
2023/02/17 07:03:47;;;;;;;;;;;11.90;94.40;;;10.78;82.02;100796.59;5006448;28;20011;-77
2023/02/17 07:06:15;;;;;;;;;;;11.90;94.60;;;10.78;82.24;100788.59;5008484;28;19933;-77
2023/02/17 07:08:42;;;;;;;;;;;11.90;94.80;;;10.80;82.54;100791.88;5009648;28;19936;-76
2023/02/17 07:11:11;;;;;;;;;;;11.90;94.90;;;10.75;82.99;100782.84;5010689;28;19926;-76
2023/02/17 07:13:39;;;;;;;;;;;11.90;94.90;;;10.75;83.26;100773.00;5000050;28;19925;-76
2023/02/17 07:16:07;;;;;;;;;;;11.90;95.20;;;10.79;nan;100776.09;5007302;28;19932;-76
2023/02/17 07:18:35;;;;;;;;;;;11.90;95.20;;;10.80;82.97;100791.06;5009231;28;20403;-77
2023/02/17 07:21:02;;;;;;;;;;;11.90;95.00;;;10.78;83.27;100809.94;5008702;28;19929;-77
2023/02/17 07:23:30;;;;;;;;;;;11.90;95.20;;;10.78;83.71;100801.09;5008378;28;19925;-77
2023/02/17 07:26:01;;;;;;;;;;;11.90;95.60;;;10.80;83.82;100801.72;5006824;28;19937;-76
2023/02/17 07:28:28;;;;;;;;;;;11.90;95.60;;;10.79;83.96;100814.25;5010420;28;19925;-76
2023/02/17 07:30:55;;;;;;;;;;;11.90;95.90;;;10.79;84.03;100802.75;5010149;28;20013;-76
2023/02/17 07:33:22;;;;;;;;;;;11.90;95.90;;;10.77;84.22;100807.47;5009688;28;19984;-76
2023/02/17 07:38:55;;;;;;;;;;;11.90;95.80;;;10.78;84.00;100804.63;5030962;28;20012;-95
2023/02/17 07:41:59;;;;;;;;;;;;;;;;;;;;;
2023/02/17 07:48:49;;;;;;;;;;;;;;;;;;;;;
2023/02/17 07:55:33;;;;;;;;;;;11.90;95.80;;;10.78;83.89;100782.41;4960261;28;20013;-94
2023/02/17 08:14:38;;;;;;;;;;;11.90;95.40;;;10.83;83.29;100780.81;4836518;29;19932;-94
2023/02/17 08:21:34;;;;;;;;;;;;;;;;;;;;;
2023/02/17 08:28:03;;;;;;;;;;;;;;;;;;;;;
2023/02/17 09:38:33;;;;;;;;;;;;;;;;;;;;;
2023/02/17 09:41:38;;;;;;;;;;;12.40;94.40;;;11.34;81.49;100793.47;4934037;28;20028;-89
2023/02/17 09:44:07;;;;;;;;;;;12.40;94.20;;;11.38;81.35;100783.22;4974646;28;20017;-88
2023/02/17 09:46:38;;;;;;;;;;;12.40;94.10;;;11.42;81.48;100791.59;4951976;28;19930;-88
2023/02/17 09:49:10;;;;;;;;;;;12.50;94.30;;;11.44;81.29;100798.41;4982905;28;20424;-87
2023/02/17 09:51:43;;;;;;;;;;;12.50;94.10;;;11.46;81.25;100799.00;4978685;28;19936;-87
2023/02/17 09:54:14;;;;;;;;;;;12.50;94.00;;;11.50;81.31;100792.22;4969741;28;19940;-87
2023/02/17 09:56:45;;;;;;;;;;;12.60;94.00;;;11.54;81.12;100800.63;4954766;28;19941;-88
2023/02/17 09:59:16;;;;;;;;;;;12.60;93.80;;;11.55;81.18;100811.09;4970262;28;19930;-88
2023/02/17 10:01:44;;;;;;;;;;;12.60;93.80;;;11.57;81.10;100803.72;4966232;28;19988;-89
2023/02/17 10:04:15;;;;;;;;;;;12.60;93.70;;;11.60;81.59;100797.13;4958658;28;19964;-90
2023/02/17 10:06:44;;;;;;;;;;;12.70;94.20;;;11.64;81.24;100805.53;4977794;28;20020;-90
2023/02/17 10:09:15;;;;;;;;;;;12.70;94.00;;;11.67;81.26;100805.94;4998577;28;19944;-90
2023/02/17 10:11:47;;;;;;;;;;;12.80;93.80;;;11.68;81.03;100807.59;5002515;28;19933;-89
2023/02/17 10:14:19;;;;;;;;;;;12.80;93.60;;;11.72;80.64;100806.13;5007043;28;19984;-88
2023/02/17 10:16:49;;;;;;;;;;;12.80;93.50;;;11.75;80.66;100811.03;5011196;28;19964;-90
2023/02/17 10:19:19;;;;;;;;;;;12.80;93.60;;;11.76;79.75;100818.06;4990074;28;19933;-90
2023/02/17 10:21:50;;;;;;;;;;;12.80;93.00;;;11.76;79.58;100810.03;5004808;28;20396;-88
2023/02/17 10:24:17;;;;;;;;;;;12.80;92.90;;;11.78;80.25;100817.84;5008789;28;20019;-88
2023/02/17 10:26:58;;;;;;;;;;;12.90;93.20;;;11.77;80.12;100832.22;4991829;28;19969;-88
2023/02/17 10:29:33;;;;;;;;;;;12.90;93.00;;;11.80;80.15;100840.63;4978824;28;20024;-88
2023/02/17 10:32:11;;;;;;;;;;;12.90;93.20;;;11.80;80.12;100847.81;5006327;28;19929;-88
2023/02/17 10:34:42;;;;;;;;;;;12.90;93.20;;;11.80;80.26;100845.97;5004237;28;19930;-89
2023/02/17 10:37:14;;;;;;;;;;;12.90;93.00;;;11.81;79.72;100842.28;4991847;28;20032;-88
2023/02/17 10:39:47;;;;;;;;;;;12.90;92.80;;;11.82;79.60;100835.94;4991123;28;19972;-88
2023/02/17 10:42:20;;;;;;;;;;;12.90;92.80;;;11.86;79.79;100823.00;5025264;28;19936;-90
2023/02/17 10:44:48;;;;;;;;;;;12.90;93.00;;;11.86;79.37;100804.28;5003607;28;19933;-89
2023/02/17 10:47:15;;;;;;;;;;;12.90;92.70;;;11.85;79.22;100799.94;4972221;28;20363;-85
2023/02/17 10:49:46;;;;;;;;;;;12.90;92.40;;;11.84;79.48;100798.31;4979568;28;19932;-84
2023/02/17 10:52:16;;;;;;;;;;;12.90;92.50;;;11.88;79.32;100804.06;5002117;28;19930;-84
2023/02/17 10:54:46;;;;;;;;;;;13.00;92.50;;;11.90;79.77;100807.31;4994304;28;19926;-84
2023/02/17 10:57:15;;;;;;;;;;;13.00;92.80;;;11.94;79.61;100813.91;5009271;28;19937;-84
2023/02/17 10:59:45;;;;;;;;;;;13.00;92.70;;;11.94;79.72;100804.03;5009042;28;20035;-83
2023/02/17 11:02:20;;;;;;;;;;;13.00;92.70;;;11.99;79.89;100806.06;5001854;28;19965;-84
2023/02/17 11:04:50;;;;;;;;;;;13.10;93.00;;;12.04;79.93;100798.22;5001945;28;20028;-85
2023/02/17 11:07:19;;;;;;;;;;;13.10;92.90;;;12.07;78.59;100806.66;4993055;28;20420;-84
2023/02/17 11:09:49;;;;;;;;;;;13.10;92.00;;;12.09;78.98;100791.19;4977692;28;19972;-84
2023/02/17 11:12:22;;;;;;;;;;;13.20;92.40;;;12.11;78.88;100783.81;4997799;28;19953;-84
2023/02/17 11:14:53;;;;;;;;;;;13.20;92.20;;;12.14;78.53;100774.53;4990436;28;19926;-87
2023/02/17 11:17:25;;;;;;;;;;;13.20;91.90;;;12.11;78.10;100777.66;5003380;28;19929;-86
2023/02/17 11:19:58;;;;;;;;;;;13.20;91.60;;;12.10;76.87;100775.97;4986201;28;20024;-85
2023/02/17 11:22:34;;;;;;;;;;;13.20;91.00;;;12.11;77.18;100783.00;4977470;28;19976;-95
2023/02/17 11:27:37;;;;;;;;;;;13.20;91.20;;;12.12;76.98;100779.28;4989011;28;19965;-86
2023/02/17 11:30:17;;;;;;;;;;;13.20;90.80;;;12.15;77.33;100773.50;4991948;28;19937;-85
2023/02/17 11:32:44;;;;;;;;;;;13.20;91.20;;;12.20;77.42;100754.97;4990207;28;20302;-86
2023/02/17 11:35:22;;;;;;;;;;;13.30;91.20;;;12.24;77.31;100740.09;4990333;28;19934;-86
2023/02/17 11:37:49;;;;;;;;;;;13.30;91.10;;;12.28;77.14;100765.38;4991428;28;19930;-84
2023/02/17 11:40:24;;;;;;;;;;;13.40;91.00;;;12.33;76.26;100748.69;4993091;28;20052;-86
2023/02/17 11:42:56;;;;;;;;;;;13.40;90.30;;;12.36;76.10;100748.28;4990715;28;19934;-90
2023/02/17 11:45:27;;;;;;;;;;;13.40;90.20;;;12.39;75.37;100758.53;4994547;28;20016;-85
2023/02/17 11:48:03;;;;;;;;;;;13.40;89.80;;;12.41;75.31;100751.13;4991815;28;19926;-88
2023/02/17 11:50:34;;;;;;;;;;;13.50;89.70;;;12.45;75.55;100756.88;4990545;28;19929;-86
2023/02/17 11:53:14;;;;;;;;;;;13.50;89.80;;;12.49;74.32;100771.44;4996391;28;19940;-86
2023/02/17 11:55:50;;;;;;;;;;;13.60;88.90;;;12.55;75.25;100773.25;4996188;28;19933;-85
2023/02/17 11:58:27;;;;;;;;;;;13.60;89.70;;;12.59;75.29;100779.78;4973163;28;20290;-87
2023/02/17 12:01:02;;;;;;;;;;;13.60;89.70;;;12.59;74.70;100775.28;4998195;28;20023;-84
2023/02/17 12:03:47;;;;;;;;;;;13.60;89.10;;;12.60;74.65;100776.09;4996325;28;19936;-85
2023/02/17 12:06:18;;;;;;;;;;;13.60;89.10;;;12.59;73.64;100761.06;5000469;28;19929;-85
2023/02/17 12:08:57;;;;;;;;;;;13.60;88.50;;;12.59;73.36;100753.03;4982116;28;20034;-85
2023/02/17 12:11:30;;;;;;;;;;;13.60;88.10;;;12.60;73.36;100741.31;4980915;28;20028;-84
2023/02/17 12:14:09;;;;;;;;;;;13.70;88.30;;;12.57;73.41;100731.03;4970970;28;20379;-85
2023/02/17 12:16:46;;;;;;;;;;;13.60;88.20;;;12.57;73.25;100733.72;4987200;28;19930;-85
2023/02/17 12:19:29;;;;;;;;;;;13.70;88.30;;;12.60;73.53;100744.00;4983459;28;19926;-85
2023/02/17 12:22:02;;;;;;;;;;;13.70;88.50;;;12.62;72.97;100741.91;4982704;28;20307;-85
2023/02/17 12:24:41;;;;;;;;;;;13.70;88.20;;;12.66;73.37;100753.81;4999333;28;20446;-85
2023/02/17 12:27:22;;;;;;;;;;;13.70;88.40;;;12.70;73.52;100749.69;4980216;28;19933;-85
2023/02/17 12:30:03;;;;;;;;;;;13.70;88.30;;;12.70;73.83;100741.66;4988128;28;19930;-84
2023/02/17 12:32:44;;;;;;;;;;;13.80;88.70;;;12.73;73.87;100732.34;4987306;28;19992;-85
2023/02/17 12:35:18;;;;;;;;;;;13.80;88.50;;;12.73;73.57;100732.34;5000744;28;19988;-85
2023/02/17 12:37:50;;;;;;;;;;;13.80;88.30;;;12.74;73.76;100742.84;4990047;28;20310;-85
2023/02/17 12:40:31;;;;;;;;;;;13.80;88.30;;;12.74;73.86;100744.72;4973071;28;19948;-85
2023/02/17 12:43:01;;;;;;;;;;;13.80;88.30;;;12.74;73.74;100740.19;4991132;28;19960;-85
2023/02/17 12:45:36;;;;;;;;;;;13.80;88.30;;;12.74;73.48;100732.16;4990148;28;19933;-84
2023/02/17 12:48:09;;;;;;;;;;;13.80;88.10;;;12.75;73.43;100747.16;4988502;28;19926;-85
2023/02/17 12:50:39;;;;;;;;;;;13.80;88.10;;;12.75;73.18;100736.47;4989184;28;19930;-85
2023/02/17 12:53:12;;;;;;;;;;;13.80;87.90;;;12.75;73.37;100743.66;4989787;28;19926;-85
2023/02/17 12:55:47;;;;;;;;;;;13.80;88.00;;;12.74;73.54;100729.47;4989512;28;19926;-85
2023/02/17 12:58:16;;;;;;;;;;;13.80;88.20;;;12.76;73.42;100748.78;4988854;28;19933;-85
2023/02/17 13:00:46;;;;;;;;;;;13.80;88.20;;;12.76;73.71;100738.09;5007108;28;20385;-87
2023/02/17 13:03:14;;;;;;;;;;;13.90;88.40;;;12.77;73.67;100733.56;5005802;28;19926;-85
2023/02/17 13:05:47;;;;;;;;;;;13.80;88.10;;;12.77;73.95;100731.69;4992711;28;19934;-85
2023/02/17 13:08:17;;;;;;;;;;;13.90;88.50;;;12.79;73.64;100747.56;5005732;28;20012;-85
2023/02/17 13:10:44;;;;;;;;;;;13.80;88.10;;;12.82;73.62;100752.44;4990463;28;19936;-85
2023/02/17 13:13:13;;;;;;;;;;;13.90;88.30;;;12.82;73.75;100745.25;4989173;28;19934;-85
2023/02/17 13:15:42;;;;;;;;;;;13.90;88.50;;;12.83;73.61;100744.22;4971654;28;20406;-86
2023/02/17 13:18:14;;;;;;;;;;;13.90;88.40;;;12.84;74.06;100739.69;4988645;28;19936;-84